createdAt,value
2018-07-16T00:01:37.982Z,85.10
2018-07-16T00:04:06.472Z,85.80
2018-07-16T00:06:34.927Z,86.50
2018-07-16T00:09:03.503Z,87.00
2018-07-16T00:11:32.248Z,87.60
2018-07-16T00:14:00.785Z,87.80
2018-07-16T00:16:29.342Z,88.20
2018-07-16T00:18:57.805Z,88.60
2018-07-16T00:21:26.341Z,89.00
2018-07-16T00:23:54.922Z,89.50
2018-07-16T00:26:23.435Z,89.80
2018-07-16T00:28:51.885Z,90.20
2018-07-16T00:31:20.389Z,90.30
2018-07-16T00:33:49.778Z,90.50
2018-07-16T00:36:19.205Z,90.70
2018-07-16T00:38:47.960Z,90.90
2018-07-16T00:41:16.789Z,91.00
2018-07-16T00:43:45.236Z,91.20
2018-07-16T00:46:13.960Z,91.30
2018-07-16T00:48:42.395Z,91.40
2018-07-16T00:51:11.860Z,91.60
2018-07-16T00:53:40.418Z,91.80
2018-07-16T00:56:08.889Z,91.80
2018-07-16T00:58:37.654Z,92.00
2018-07-16T01:01:06.522Z,92.10
2018-07-16T01:03:34.987Z,92.30
2018-07-16T01:06:03.433Z,92.40
2018-07-16T01:08:32.112Z,92.50
2018-07-16T01:11:00.582Z,92.60
2018-07-16T01:13:29.029Z,92.60
2018-07-16T01:15:57.541Z,92.80
2018-07-16T01:18:26.210Z,92.90
2018-07-16T01:20:54.821Z,93.00
2018-07-16T01:23:23.726Z,93.10
2018-07-16T01:25:52.438Z,93.10
2018-07-16T01:28:21.293Z,93.20
2018-07-16T01:30:50.217Z,93.20
2018-07-16T01:33:18.689Z,93.50
2018-07-16T01:38:15.846Z,93.30
2018-07-16T01:43:13.238Z,93.40
2018-07-16T01:45:41.710Z,93.40
2018-07-16T01:48:10.225Z,93.40
2018-07-16T01:50:38.915Z,93.30
2018-07-16T01:53:07.899Z,93.30
2018-07-16T01:55:36.402Z,93.30
2018-07-16T01:58:04.860Z,93.30
2018-07-16T02:00:34.827Z,93.30
2018-07-16T02:03:03.369Z,93.20
2018-07-16T02:05:31.872Z,93.20
2018-07-16T02:08:00.378Z,93.20
2018-07-16T02:10:29.132Z,93.10
2018-07-16T02:12:57.625Z,93.10
2018-07-16T02:15:26.777Z,93.10
2018-07-16T02:17:55.246Z,93.20
2018-07-16T02:20:23.788Z,93.10
2018-07-16T02:22:52.436Z,93.00
2018-07-16T02:25:20.951Z,93.00
2018-07-16T02:27:49.572Z,92.90
2018-07-16T02:30:18.053Z,93.00
2018-07-16T02:32:46.891Z,92.80
2018-07-16T02:35:15.323Z,93.00
2018-07-16T02:37:43.767Z,93.10
2018-07-16T02:40:19.155Z,93.10
2018-07-16T02:42:47.993Z,93.00
2018-07-16T02:45:16.501Z,93.10
2018-07-16T02:47:44.934Z,93.10
2018-07-16T02:50:13.467Z,93.10
2018-07-16T02:52:41.936Z,93.00
2018-07-16T02:55:10.441Z,93.00
2018-07-16T02:57:39.159Z,93.00
2018-07-16T03:00:07.760Z,93.10
2018-07-16T03:02:37.679Z,93.00
2018-07-16T03:05:07.183Z,92.90
2018-07-16T03:07:35.917Z,92.90
2018-07-16T03:10:05.118Z,93.10
2018-07-16T03:12:33.661Z,93.00
2018-07-16T03:15:02.090Z,93.00
2018-07-16T03:17:30.546Z,93.10
2018-07-16T03:19:59.573Z,92.90
2018-07-16T03:22:28.027Z,92.80
2018-07-16T03:24:56.727Z,92.80
2018-07-16T03:29:53.884Z,93.10
2018-07-16T03:32:22.357Z,93.20
2018-07-16T03:34:50.954Z,93.10
2018-07-16T03:39:54.430Z,93.20
2018-07-16T03:42:22.953Z,93.20
2018-07-16T03:44:58.583Z,93.30
2018-07-16T03:47:27.004Z,93.20
2018-07-16T03:49:55.909Z,93.20
2018-07-16T03:52:24.483Z,93.20
2018-07-16T03:54:53.038Z,93.10
2018-07-16T03:57:21.605Z,93.10
2018-07-16T03:59:50.085Z,93.10
2018-07-16T04:02:18.546Z,93.30
2018-07-16T04:04:47.945Z,93.40
2018-07-16T04:07:16.404Z,93.40
2018-07-16T04:09:46.115Z,93.40
2018-07-16T04:12:14.577Z,93.30
2018-07-16T04:14:43.020Z,93.50
2018-07-16T04:17:11.526Z,93.70
2018-07-16T04:19:40.008Z,93.70
2018-07-16T04:22:08.462Z,93.80
2018-07-16T04:24:37.003Z,93.90
2018-07-16T04:27:06.441Z,93.60
2018-07-16T04:29:35.007Z,94.00
2018-07-16T04:32:03.984Z,94.20
2018-07-16T04:34:33.186Z,93.90
2018-07-16T04:37:01.684Z,94.20
2018-07-16T04:39:30.806Z,94.20
2018-07-16T04:41:59.258Z,93.90
2018-07-16T04:44:28.005Z,94.10
2018-07-16T04:46:56.502Z,94.10
2018-07-16T04:49:25.112Z,94.30
2018-07-16T04:51:54.307Z,94.40
2018-07-16T04:54:22.858Z,94.50
2018-07-16T04:56:52.126Z,94.10
2018-07-16T04:59:20.893Z,94.20
2018-07-16T05:01:49.428Z,93.90
2018-07-16T05:04:17.941Z,93.70
2018-07-16T05:06:46.708Z,93.70
2018-07-16T05:09:15.526Z,93.50
2018-07-16T05:14:13.148Z,93.60
2018-07-16T05:16:42.251Z,93.60
2018-07-16T05:19:11.213Z,93.60
2018-07-16T05:21:40.249Z,93.50
2018-07-16T05:24:08.900Z,93.30
2018-07-16T05:26:38.737Z,93.40
2018-07-16T05:29:07.742Z,92.90
2018-07-16T05:31:36.293Z,92.90
2018-07-16T05:34:05.058Z,92.70
2018-07-16T05:36:33.973Z,92.50
2018-07-16T05:39:02.786Z,92.70
2018-07-16T05:41:31.422Z,92.50
2018-07-16T05:43:59.883Z,92.10
2018-07-16T05:46:28.425Z,92.00
2018-07-16T05:48:56.922Z,92.10
2018-07-16T05:51:25.386Z,92.20
2018-07-16T05:53:53.816Z,91.90
2018-07-16T05:56:22.296Z,92.00
2018-07-16T05:58:50.757Z,92.70
2018-07-16T06:01:19.474Z,92.70
2018-07-16T06:03:47.976Z,92.50
2018-07-16T06:06:16.495Z,92.10
2018-07-16T06:08:45.345Z,92.00
2018-07-16T06:11:13.822Z,92.10
2018-07-16T06:13:42.302Z,91.90
2018-07-16T06:16:10.991Z,91.40
2018-07-16T06:18:39.514Z,91.20
2018-07-16T06:21:08.020Z,90.40
2018-07-16T06:23:36.513Z,91.30
2018-07-16T06:28:33.249Z,88.80
2018-07-16T06:31:02.074Z,89.90
2018-07-16T06:33:30.902Z,87.50
2018-07-16T06:35:59.617Z,85.60
2018-07-16T06:38:28.117Z,83.90
2018-07-16T06:40:57.251Z,86.20
2018-07-16T06:43:25.888Z,84.30
2018-07-16T06:45:54.383Z,86.20
2018-07-16T06:48:23.137Z,86.00
2018-07-16T06:50:52.055Z,82.70
2018-07-16T06:53:20.675Z,83.60
2018-07-16T06:55:49.217Z,82.80
2018-07-16T06:58:17.693Z,82.80
2018-07-16T07:00:46.166Z,80.20
2018-07-16T07:03:14.620Z,79.10
2018-07-16T07:05:43.060Z,79.40
2018-07-16T07:08:11.575Z,77.90
2018-07-16T07:10:39.969Z,75.60
2018-07-16T07:13:08.523Z,74.30
2018-07-16T07:15:37.787Z,73.10
2018-07-16T07:18:06.341Z,72.60
2018-07-16T07:20:34.947Z,72.20
2018-07-16T07:23:03.536Z,69.60
2018-07-16T07:25:32.147Z,67.00
2018-07-16T07:28:00.630Z,65.60
2018-07-16T07:30:29.138Z,65.20
2018-07-16T07:32:58.104Z,63.90
2018-07-16T07:35:26.540Z,63.00
2018-07-16T07:37:55.070Z,62.20
2018-07-16T07:40:23.949Z,61.40
2018-07-16T07:42:52.716Z,58.20
2018-07-16T07:45:21.174Z,57.40
2018-07-16T07:47:49.710Z,58.40
2018-07-16T07:50:18.161Z,52.10
2018-07-16T07:52:46.649Z,52.60
2018-07-16T07:55:15.473Z,51.30
2018-07-16T07:57:44.790Z,52.40
2018-07-16T08:00:13.335Z,52.00
2018-07-16T08:02:42.004Z,50.00
2018-07-16T08:05:10.543Z,50.40
2018-07-16T08:07:39.033Z,47.80
2018-07-16T08:10:07.669Z,48.00
2018-07-16T08:12:36.273Z,47.60
2018-07-16T08:15:04.789Z,46.90
2018-07-16T08:17:33.360Z,46.40
2018-07-16T08:20:02.184Z,44.40
2018-07-16T08:22:30.665Z,43.90
2018-07-16T08:24:59.273Z,43.30
2018-07-16T08:27:27.735Z,43.70
2018-07-16T08:29:56.503Z,42.50
2018-07-16T08:32:24.997Z,43.30
2018-07-16T08:34:53.990Z,41.80
2018-07-16T08:37:22.640Z,41.90
2018-07-16T08:39:51.126Z,40.90
2018-07-16T08:42:19.629Z,39.90
2018-07-16T08:47:16.277Z,38.80
2018-07-16T08:49:44.763Z,39.10
2018-07-16T08:54:42.520Z,37.40
2018-07-16T08:57:11.157Z,37.00
2018-07-16T08:59:39.581Z,36.50
2018-07-16T09:02:08.124Z,37.00
2018-07-16T09:04:36.571Z,36.10
2018-07-16T09:07:05.085Z,35.90
2018-07-16T09:09:33.533Z,36.70
2018-07-16T09:12:02.152Z,35.40
2018-07-16T09:14:30.749Z,35.60
2018-07-16T09:16:59.362Z,35.70
2018-07-16T09:19:30.727Z,34.60
2018-07-16T09:21:59.246Z,34.70
2018-07-16T09:24:27.701Z,34.60
2018-07-16T09:26:56.181Z,33.60
2018-07-16T09:29:24.785Z,33.20
2018-07-16T09:31:53.296Z,32.50
2018-07-16T09:34:22.120Z,32.30
2018-07-16T09:36:50.576Z,33.20
2018-07-16T09:39:19.074Z,33.80
2018-07-16T09:44:15.925Z,32.50
2018-07-16T09:46:44.380Z,30.70
2018-07-16T09:49:12.993Z,30.90
2018-07-16T09:51:41.526Z,31.70
2018-07-16T09:54:10.075Z,31.50
2018-07-16T09:56:39.303Z,30.10
2018-07-16T09:59:07.947Z,30.60
2018-07-16T10:04:10.226Z,31.10
2018-07-16T10:06:38.887Z,30.00
2018-07-16T10:09:08.133Z,30.60
2018-07-16T10:11:36.630Z,30.00
2018-07-16T10:14:05.069Z,30.20
2018-07-16T10:16:33.497Z,29.90
2018-07-16T10:19:02.368Z,29.60
2018-07-16T10:21:30.932Z,29.50
2018-07-16T10:24:00.393Z,29.40
2018-07-16T10:29:03.477Z,28.80
2018-07-16T10:31:31.935Z,29.30
2018-07-16T10:34:00.583Z,28.30
2018-07-16T10:36:29.040Z,27.30
2018-07-16T10:38:57.501Z,28.00
2018-07-16T10:41:25.913Z,27.60
2018-07-16T10:43:54.414Z,27.70
2018-07-16T10:46:22.864Z,27.70
2018-07-16T10:48:51.416Z,27.30
2018-07-16T10:51:19.917Z,26.40
2018-07-16T10:53:48.899Z,27.20
2018-07-16T10:56:17.377Z,27.10
2018-07-16T10:58:46.483Z,27.20
2018-07-16T11:01:14.926Z,26.60
2018-07-16T11:03:43.365Z,26.40
2018-07-16T11:06:17.193Z,26.20
2018-07-16T11:08:45.653Z,26.10
2018-07-16T11:11:14.113Z,26.40
2018-07-16T11:13:42.628Z,25.60
2018-07-16T11:16:11.034Z,25.30
2018-07-16T11:18:39.449Z,25.50
2018-07-16T11:21:07.929Z,25.80
2018-07-16T11:23:36.542Z,26.90
2018-07-16T11:26:05.046Z,25.40
2018-07-16T11:28:34.081Z,26.20
2018-07-16T11:31:02.497Z,25.60
2018-07-16T11:33:30.944Z,26.10
2018-07-16T11:35:59.354Z,25.80
2018-07-16T11:38:27.862Z,25.70
2018-07-16T11:40:56.378Z,24.70
2018-07-16T11:43:24.784Z,25.30
2018-07-16T11:45:53.313Z,25.60
2018-07-16T11:48:21.897Z,24.50
2018-07-16T11:50:50.314Z,24.40
2018-07-16T11:53:18.763Z,25.40
2018-07-16T11:55:47.243Z,24.30
2018-07-16T11:58:15.815Z,24.40
2018-07-16T12:00:44.829Z,25.40
2018-07-16T12:03:13.370Z,26.00
2018-07-16T12:05:41.837Z,25.70
2018-07-16T12:08:10.426Z,25.10
2018-07-16T12:10:38.853Z,25.30
2018-07-16T12:13:07.448Z,25.40
2018-07-16T12:15:35.891Z,25.30
2018-07-16T12:18:04.378Z,25.00
2018-07-16T12:20:33.642Z,24.80
2018-07-16T12:23:02.220Z,25.40
2018-07-16T15:02:18.142Z,26.20
2018-07-16T15:04:46.843Z,26.00
2018-07-16T15:07:15.355Z,26.80
2018-07-16T15:09:43.877Z,26.60
2018-07-16T15:12:12.437Z,26.40
2018-07-16T15:14:41.043Z,26.10
2018-07-16T15:17:09.557Z,25.80
2018-07-16T15:22:06.253Z,25.30
2018-07-16T15:24:34.726Z,25.30
2018-07-16T15:27:03.288Z,25.10
2018-07-16T15:29:31.834Z,25.50
2018-07-16T15:32:00.305Z,25.50
2018-07-16T15:34:28.972Z,25.60
2018-07-16T15:36:57.514Z,26.20
2018-07-16T15:39:26.115Z,26.40
2018-07-16T15:41:54.638Z,26.60
2018-07-16T15:44:23.351Z,26.80
2018-07-16T15:46:52.021Z,27.40
2018-07-16T15:49:20.520Z,27.40
2018-07-16T15:51:49.639Z,27.40
2018-07-16T15:54:18.175Z,27.70
2018-07-16T15:56:46.769Z,27.60
2018-07-16T15:59:15.353Z,28.00
2018-07-16T16:01:43.935Z,28.20
2018-07-16T16:04:12.421Z,28.20
2018-07-16T16:06:41.441Z,28.30
2018-07-16T16:09:10.201Z,28.60
2018-07-16T16:11:38.797Z,28.70
2018-07-16T16:14:07.734Z,28.60
2018-07-16T16:16:37.222Z,28.70
2018-07-16T16:19:05.724Z,28.80
2018-07-16T16:21:34.326Z,28.90
2018-07-16T16:24:02.867Z,28.90
2018-07-16T16:26:31.417Z,29.00
2018-07-16T16:29:00.882Z,29.40
2018-07-16T16:31:29.579Z,29.50
2018-07-16T16:33:58.197Z,29.40
2018-07-16T16:36:26.844Z,29.50
2018-07-16T16:38:56.090Z,29.60
2018-07-16T16:41:24.679Z,29.80
2018-07-16T16:43:53.189Z,30.00
2018-07-16T16:46:21.708Z,30.00
2018-07-16T16:48:50.221Z,29.90
2018-07-16T16:51:18.905Z,30.20
2018-07-16T16:53:47.432Z,30.20
2018-07-16T16:56:16.115Z,30.90
2018-07-16T16:58:45.214Z,30.80
2018-07-16T17:01:13.791Z,30.70
2018-07-16T17:03:42.318Z,30.70
2018-07-16T17:06:10.976Z,31.10
2018-07-16T17:08:39.471Z,31.30
2018-07-16T17:13:36.288Z,31.40
2018-07-16T17:16:04.934Z,31.60
2018-07-16T17:18:33.558Z,31.40
2018-07-16T17:21:02.095Z,31.70
2018-07-16T17:23:30.769Z,31.60
2018-07-16T17:25:59.417Z,31.80
2018-07-16T17:28:28.632Z,31.70
2018-07-16T17:30:57.260Z,32.00
2018-07-16T17:33:25.829Z,32.10
2018-07-16T17:35:54.770Z,32.20
2018-07-16T17:38:23.725Z,32.00
2018-07-16T17:40:52.638Z,32.20
2018-07-16T17:43:21.588Z,32.50
2018-07-16T17:45:50.560Z,32.30
2018-07-16T17:48:22.144Z,32.30
2018-07-16T17:50:50.778Z,32.50
2018-07-16T17:53:19.452Z,32.60
2018-07-16T17:55:48.003Z,32.80
2018-07-16T17:58:16.520Z,32.60
2018-07-16T18:00:45.033Z,32.80
2018-07-16T18:03:13.569Z,32.60
2018-07-16T18:05:42.166Z,32.90
2018-07-16T18:08:11.100Z,32.90
2018-07-16T18:10:39.655Z,33.50
2018-07-16T18:15:37.669Z,33.00
2018-07-16T18:18:06.179Z,33.00
2018-07-16T18:20:35.588Z,33.20
2018-07-16T18:23:04.948Z,33.50
2018-07-16T18:25:33.784Z,33.60
2018-07-16T18:28:02.318Z,33.60
2018-07-16T18:30:30.844Z,33.70
2018-07-16T18:32:59.376Z,33.70
2018-07-16T18:37:56.880Z,33.90
2018-07-16T18:40:25.403Z,33.90
2018-07-16T18:42:53.944Z,33.80
2018-07-16T18:47:51.144Z,33.70
2018-07-16T18:50:19.634Z,33.80
2018-07-16T18:52:48.193Z,34.10
2018-07-16T18:55:16.846Z,34.10
2018-07-16T18:57:45.484Z,34.10
2018-07-16T19:00:14.070Z,34.20
2018-07-16T19:02:42.589Z,34.30
2018-07-16T19:05:11.140Z,34.20
2018-07-16T19:07:39.702Z,34.30
2018-07-16T19:10:08.239Z,34.50
2018-07-16T19:12:36.888Z,34.60
2018-07-16T19:15:10.695Z,34.80
2018-07-16T19:17:39.267Z,35.00
2018-07-16T19:20:07.819Z,35.10
2018-07-16T19:22:36.359Z,35.20
2018-07-16T19:25:04.916Z,35.60
2018-07-16T19:27:33.418Z,35.70
2018-07-16T19:30:01.970Z,35.70
2018-07-16T19:32:30.523Z,36.00
2018-07-16T19:34:59.066Z,36.30
2018-07-16T19:37:27.538Z,36.70
2018-07-16T19:39:57.877Z,36.80
2018-07-16T19:42:26.660Z,36.80
2018-07-16T19:44:55.156Z,37.10
2018-07-16T19:47:23.659Z,38.10
2018-07-16T19:49:52.185Z,37.80
2018-07-16T19:52:20.701Z,38.00
2018-07-16T19:54:49.362Z,38.30
2018-07-16T19:57:17.840Z,38.30
2018-07-16T19:59:47.099Z,39.00
2018-07-16T20:02:15.566Z,39.80
2018-07-16T20:04:44.743Z,40.70
2018-07-16T20:07:13.519Z,41.40
2018-07-16T20:09:41.991Z,41.90
2018-07-16T20:12:20.435Z,42.30
2018-07-16T20:14:48.963Z,42.60
2018-07-16T20:17:17.509Z,43.10
2018-07-16T20:19:46.049Z,43.50
2018-07-16T20:22:15.399Z,44.70
2018-07-16T20:24:44.048Z,44.60
2018-07-16T20:27:12.745Z,44.80
2018-07-16T20:29:41.374Z,45.20
2018-07-16T20:32:09.858Z,45.60
2018-07-16T20:34:38.885Z,46.00
2018-07-16T20:37:07.864Z,46.50
2018-07-16T20:39:36.387Z,47.70
2018-07-16T20:42:04.881Z,47.80
2018-07-16T20:44:33.397Z,48.00
2018-07-16T20:47:01.942Z,48.50
2018-07-16T20:49:30.468Z,48.90
2018-07-16T20:51:59.106Z,49.20
2018-07-16T20:56:55.907Z,50.00
2018-07-16T20:59:24.395Z,50.60
2018-07-16T21:01:52.911Z,51.10
2018-07-16T21:04:21.485Z,51.50
2018-07-16T21:06:50.049Z,52.30
2018-07-16T21:09:18.474Z,52.90
2018-07-16T21:11:47.038Z,53.20
2018-07-16T21:14:15.824Z,53.60
2018-07-16T21:16:44.408Z,54.80
2018-07-16T21:19:13.544Z,54.50
2018-07-16T21:21:42.147Z,55.30
2018-07-16T21:24:10.663Z,55.60
2018-07-16T21:26:39.177Z,56.40
2018-07-16T21:29:07.908Z,56.80
2018-07-16T21:31:37.802Z,57.50
2018-07-16T21:34:06.371Z,57.90
2018-07-16T21:36:35.547Z,58.80
2018-07-16T21:39:04.914Z,59.30
2018-07-16T21:41:33.402Z,59.60
2018-07-16T21:46:30.692Z,61.70
2018-07-16T21:48:59.996Z,62.30
2018-07-16T21:51:29.460Z,63.10
2018-07-16T21:53:57.961Z,63.30
2018-07-16T21:56:26.568Z,64.10
2018-07-16T21:58:55.111Z,64.70
2018-07-16T22:01:23.913Z,65.30
2018-07-16T22:03:53.053Z,65.30
2018-07-16T22:06:21.758Z,65.80
2018-07-16T22:08:50.309Z,66.20
2018-07-16T22:11:18.992Z,66.60
2018-07-16T22:13:47.469Z,66.90
2018-07-16T22:16:16.061Z,67.20
2018-07-16T22:18:45.638Z,66.80
2018-07-16T22:21:14.143Z,66.30
2018-07-16T22:23:42.734Z,65.90
2018-07-16T22:26:18.542Z,66.70
2018-07-16T22:28:47.006Z,66.50
2018-07-16T22:31:17.033Z,66.20
2018-07-16T22:33:45.685Z,65.80
2018-07-16T22:36:14.179Z,65.90
2018-07-16T22:38:43.019Z,66.00
2018-07-16T22:41:11.549Z,66.00
2018-07-16T22:43:40.036Z,66.10
2018-07-16T22:48:36.861Z,66.50
2018-07-16T22:51:05.562Z,67.00
2018-07-16T22:53:34.113Z,66.80
2018-07-16T22:56:02.703Z,67.40
2018-07-16T22:58:31.170Z,67.20
2018-07-16T23:00:59.691Z,67.00
2018-07-16T23:03:28.314Z,67.10
2018-07-16T23:05:56.990Z,66.90
2018-07-16T23:08:25.617Z,67.70
2018-07-16T23:10:54.207Z,67.60
2018-07-16T23:13:22.681Z,68.10
2018-07-16T23:15:51.216Z,68.40
2018-07-16T23:18:19.774Z,68.70
2018-07-16T23:20:48.412Z,69.10
2018-07-16T23:23:17.167Z,69.10
2018-07-16T23:25:45.755Z,69.50
2018-07-16T23:28:14.341Z,69.60
2018-07-16T23:30:42.844Z,69.80
2018-07-16T23:33:11.363Z,70.70
2018-07-16T23:35:40.394Z,70.90
2018-07-16T23:38:08.929Z,71.10
2018-07-16T23:40:37.585Z,71.90
2018-07-16T23:43:06.074Z,72.00
2018-07-16T23:45:34.817Z,72.20
2018-07-16T23:48:03.459Z,72.60
2018-07-16T23:50:32.121Z,72.70
2018-07-16T23:53:00.717Z,72.60
2018-07-16T23:55:29.523Z,73.00
2018-07-16T23:57:58.019Z,73.20
